createdAt,value
2023-09-27T00:00:14.953Z,13.20
2023-09-27T00:02:45.005Z,14.23
2023-09-27T00:05:13.517Z,13.13
2023-09-27T00:07:43.206Z,12.10
2023-09-27T00:10:13.339Z,13.07
2023-09-27T00:12:44.216Z,12.40
2023-09-27T00:15:13.251Z,14.47
2023-09-27T00:17:42.562Z,13.03
2023-09-27T00:20:13.506Z,11.97
2023-09-27T00:22:41.087Z,13.23
2023-09-27T00:25:10.840Z,13.00
2023-09-27T00:27:38.683Z,12.90
2023-09-27T00:30:08.493Z,11.70
2023-09-27T00:32:36.014Z,12.23
2023-09-27T00:35:05.265Z,11.93
2023-09-27T00:37:35.846Z,12.97
2023-09-27T00:40:04.941Z,12.43
2023-09-27T00:42:32.412Z,14.33
2023-09-27T00:45:00.037Z,12.67
2023-09-27T00:47:27.858Z,13.57
2023-09-27T00:49:55.613Z,11.70
2023-09-27T00:52:24.297Z,13.03
2023-09-27T00:54:52.411Z,11.70
2023-09-27T00:57:20.332Z,13.60
2023-09-27T00:59:48.113Z,13.20
2023-09-27T01:02:16.003Z,11.60
2023-09-27T01:04:44.551Z,13.17
2023-09-27T01:07:11.815Z,12.77
2023-09-27T01:09:39.667Z,12.73
2023-09-27T01:12:06.994Z,11.40
2023-09-27T01:14:34.518Z,11.70
2023-09-27T01:17:11.669Z,12.57
2023-09-27T01:19:40.208Z,12.50
2023-09-27T01:22:08.854Z,11.10
2023-09-27T01:24:39.165Z,12.80
2023-09-27T01:27:07.524Z,13.30
2023-09-27T01:29:35.003Z,12.53
2023-09-27T01:32:02.525Z,13.50
2023-09-27T01:34:30.142Z,13.40
2023-09-27T01:36:59.168Z,13.70
2023-09-27T01:39:27.266Z,14.40
2023-09-27T01:41:54.811Z,15.00
2023-09-27T01:44:23.540Z,14.30
2023-09-27T01:46:52.725Z,13.33
2023-09-27T01:49:20.394Z,14.27
2023-09-27T01:51:49.245Z,13.10
2023-09-27T01:54:16.832Z,12.90
2023-09-27T01:56:45.461Z,13.67
2023-09-27T01:59:13.003Z,13.90
2023-09-27T02:01:40.634Z,13.70
2023-09-27T02:04:08.674Z,14.13
2023-09-27T02:06:36.175Z,13.50
2023-09-27T02:09:04.857Z,15.37
2023-09-27T02:11:32.427Z,14.47
2023-09-27T02:14:03.151Z,14.43
2023-09-27T02:16:30.812Z,15.17
2023-09-27T02:18:58.731Z,14.17
2023-09-27T02:21:26.465Z,14.93
2023-09-27T02:23:55.280Z,15.20
2023-09-27T02:26:24.304Z,14.80
2023-09-27T02:28:51.898Z,14.90
2023-09-27T02:31:19.775Z,14.83
2023-09-27T02:33:47.442Z,14.30
2023-09-27T02:36:18.426Z,14.63
2023-09-27T02:38:45.801Z,14.40
2023-09-27T02:41:13.172Z,16.20
2023-09-27T02:43:41.620Z,16.03
2023-09-27T02:46:09.067Z,15.67
2023-09-27T02:48:37.418Z,15.13
2023-09-27T02:51:04.798Z,16.27
2023-09-27T02:53:32.128Z,15.93
2023-09-27T02:55:59.933Z,14.53
2023-09-27T02:58:27.685Z,15.10
2023-09-27T03:00:58.382Z,15.90
2023-09-27T03:03:25.955Z,14.33
2023-09-27T03:05:53.757Z,15.23
2023-09-27T03:08:21.042Z,14.20
2023-09-27T03:10:49.261Z,15.00
2023-09-27T03:13:17.399Z,16.37
2023-09-27T03:15:45.713Z,14.83
2023-09-27T03:18:13.359Z,18.10
2023-09-27T03:20:41.796Z,15.33
2023-09-27T03:23:09.118Z,15.90
2023-09-27T03:25:36.711Z,15.70
2023-09-27T03:28:04.055Z,15.67
2023-09-27T03:30:31.310Z,16.27
2023-09-27T03:32:58.707Z,15.90
2023-09-27T03:35:26.098Z,15.40
2023-09-27T03:37:53.459Z,15.03
2023-09-27T03:40:20.937Z,15.50
2023-09-27T03:42:48.457Z,16.80
2023-09-27T03:45:17.366Z,15.80
2023-09-27T03:47:46.917Z,16.37
2023-09-27T03:50:19.316Z,16.13
2023-09-27T03:52:47.132Z,16.70
2023-09-27T03:55:14.780Z,15.80
2023-09-27T03:57:42.502Z,15.90
2023-09-27T04:00:19.603Z,17.37
2023-09-27T04:02:48.937Z,16.90
2023-09-27T04:05:18.318Z,14.40
2023-09-27T04:07:45.758Z,13.20
2023-09-27T04:10:13.091Z,15.30
2023-09-27T04:12:40.355Z,13.23
2023-09-27T04:15:09.570Z,14.43
2023-09-27T04:17:41.023Z,17.13
2023-09-27T04:20:19.772Z,17.67
2023-09-27T04:22:48.586Z,17.37
2023-09-27T04:25:16.768Z,14.07
2023-09-27T04:27:47.203Z,18.30
2023-09-27T04:30:20.491Z,18.40
2023-09-27T04:32:48.924Z,16.40
2023-09-27T04:35:16.504Z,17.87
2023-09-27T04:37:43.918Z,18.03
2023-09-27T04:40:15.362Z,17.23
2023-09-27T04:42:43.571Z,17.30
2023-09-27T04:45:12.187Z,19.00
2023-09-27T04:47:40.689Z,17.90
2023-09-27T04:50:14.026Z,15.10
2023-09-27T04:52:41.584Z,18.37
2023-09-27T04:55:14.209Z,19.57
2023-09-27T04:57:41.858Z,17.47
2023-09-27T05:00:15.438Z,18.43
2023-09-27T05:02:43.371Z,17.97
2023-09-27T05:05:10.884Z,19.80
2023-09-27T05:07:38.579Z,19.47
2023-09-27T05:10:07.118Z,19.70
2023-09-27T05:12:35.138Z,20.40
2023-09-27T05:15:02.509Z,18.93
2023-09-27T05:17:30.762Z,16.93
2023-09-27T05:19:58.178Z,16.57
2023-09-27T05:22:25.809Z,18.23
2023-09-27T05:24:53.375Z,15.57
2023-09-27T05:27:21.661Z,17.43
2023-09-27T05:29:49.556Z,19.27
2023-09-27T05:32:16.898Z,17.60
2023-09-27T05:34:44.861Z,18.10
2023-09-27T05:37:12.200Z,20.00
2023-09-27T05:39:39.986Z,16.83
2023-09-27T05:42:08.863Z,17.13
2023-09-27T05:44:36.352Z,17.10
2023-09-27T05:47:04.018Z,17.73
2023-09-27T05:49:32.501Z,17.80
2023-09-27T05:52:00.051Z,17.20
2023-09-27T05:54:27.459Z,16.63
2023-09-27T05:56:56.931Z,17.97
2023-09-27T05:59:27.857Z,18.33
2023-09-27T06:01:56.128Z,16.57
2023-09-27T06:04:23.445Z,17.13
2023-09-27T06:06:50.995Z,17.90
2023-09-27T06:09:20.155Z,16.47
2023-09-27T06:11:47.893Z,17.60
2023-09-27T06:14:15.813Z,17.30
2023-09-27T06:16:47.392Z,16.70
2023-09-27T06:19:16.977Z,17.30
2023-09-27T06:21:46.521Z,18.30
2023-09-27T06:24:13.792Z,17.83
2023-09-27T06:26:42.316Z,19.00
2023-09-27T06:29:10.958Z,23.70
2023-09-27T06:31:38.839Z,18.20
2023-09-27T06:34:06.046Z,17.37
2023-09-27T06:36:36.158Z,17.40
2023-09-27T06:39:04.131Z,20.60
2023-09-27T06:41:31.400Z,18.30
2023-09-27T06:43:58.597Z,17.10
2023-09-27T06:46:27.749Z,18.13
2023-09-27T06:48:57.283Z,16.40
2023-09-27T06:51:25.597Z,18.53
2023-09-27T06:53:53.775Z,17.60
2023-09-27T06:56:21.102Z,16.50
2023-09-27T06:58:48.418Z,17.93
2023-09-27T07:01:16.214Z,19.20
2023-09-27T07:03:43.650Z,17.27
2023-09-27T07:06:11.921Z,17.60
2023-09-27T07:08:39.596Z,20.20
2023-09-27T07:11:10.594Z,17.90
2023-09-27T07:13:42.633Z,18.80
2023-09-27T07:16:29.126Z,18.10
2023-09-27T07:19:00.433Z,16.53
2023-09-27T07:21:29.239Z,15.40
2023-09-27T07:23:56.881Z,17.13
2023-09-27T07:26:24.101Z,17.10
2023-09-27T07:28:51.874Z,16.50
2023-09-27T07:31:19.580Z,14.60
2023-09-27T07:33:56.092Z,15.03
2023-09-27T07:36:26.095Z,15.80
2023-09-27T07:38:53.688Z,15.20
2023-09-27T07:41:21.521Z,16.90
2023-09-27T07:43:49.293Z,13.67
2023-09-27T07:46:18.823Z,14.97
2023-09-27T07:48:46.180Z,16.10
2023-09-27T07:51:14.088Z,17.10
2023-09-27T07:53:42.564Z,16.37
2023-09-27T07:56:12.172Z,15.70
2023-09-27T07:58:43.019Z,14.30
2023-09-27T08:01:10.386Z,14.60
2023-09-27T08:03:39.681Z,15.50
2023-09-27T08:06:08.502Z,15.07
2023-09-27T08:08:36.062Z,15.10
2023-09-27T08:11:04.354Z,21.00
2023-09-27T08:13:33.015Z,15.80
2023-09-27T08:16:00.240Z,17.07
2023-09-27T08:18:27.423Z,15.43
2023-09-27T08:20:56.092Z,13.70
2023-09-27T08:23:23.486Z,15.83
2023-09-27T08:25:54.115Z,13.37
2023-09-27T08:28:24.306Z,15.70
2023-09-27T08:30:51.672Z,15.80
2023-09-27T08:33:18.947Z,13.40
2023-09-27T08:35:46.849Z,13.00
2023-09-27T08:38:14.274Z,12.63
2023-09-27T08:40:41.852Z,15.70
2023-09-27T08:43:09.144Z,16.30
2023-09-27T08:45:39.145Z,15.30
2023-09-27T08:48:08.128Z,17.00
2023-09-27T08:50:36.310Z,16.50
2023-09-27T08:53:03.910Z,16.40
2023-09-27T08:55:31.297Z,15.23
2023-09-27T08:57:58.706Z,14.47
2023-09-27T09:00:28.089Z,14.10
2023-09-27T09:02:59.854Z,15.47
2023-09-27T09:05:30.282Z,16.67
2023-09-27T09:07:58.764Z,14.33
2023-09-27T09:10:26.185Z,15.97
2023-09-27T09:12:53.681Z,14.97
2023-09-27T09:15:37.254Z,12.97
2023-09-27T09:18:07.605Z,15.20
2023-09-27T09:20:49.948Z,15.80
2023-09-27T09:23:31.543Z,16.13
2023-09-27T09:26:00.001Z,14.87
2023-09-27T09:28:31.328Z,13.53
2023-09-27T09:30:58.759Z,13.53
2023-09-27T09:33:30.309Z,14.87
2023-09-27T09:35:57.695Z,14.93
2023-09-27T09:38:27.010Z,15.90
2023-09-27T09:40:58.561Z,14.20
2023-09-27T09:43:32.987Z,13.30
2023-09-27T09:46:02.266Z,12.73
2023-09-27T09:48:31.134Z,11.53
2023-09-27T09:51:02.989Z,11.83
2023-09-27T09:53:30.353Z,13.10
2023-09-27T09:58:36.989Z,11.33
2023-09-27T10:01:05.769Z,12.30
2023-09-27T10:03:36.961Z,12.43
2023-09-27T10:06:06.155Z,12.10
2023-09-27T10:08:40.259Z,12.90
2023-09-27T10:11:09.972Z,13.80
2023-09-27T10:13:40.217Z,12.90
2023-09-27T10:16:08.208Z,11.73
2023-09-27T10:18:47.917Z,11.63
2023-09-27T10:21:15.879Z,12.63
2023-09-27T10:23:51.556Z,11.43
2023-09-27T10:26:33.027Z,10.23
2023-09-27T10:29:14.750Z,10.37
2023-09-27T10:31:57.646Z,10.60
2023-09-27T10:34:29.149Z,11.03
2023-09-27T10:37:18.541Z,11.33
2023-09-27T10:40:06.954Z,10.10
2023-09-27T10:42:43.497Z,9.90
2023-09-27T10:45:11.434Z,10.07
2023-09-27T10:47:39.932Z,12.17
2023-09-27T10:50:07.436Z,10.60
2023-09-27T10:52:34.753Z,10.20
2023-09-27T10:55:12.169Z,10.20
2023-09-27T10:57:41.332Z,10.27
2023-09-27T11:00:12.999Z,9.53
2023-09-27T11:02:40.421Z,10.77
2023-09-27T11:05:09.331Z,9.53
2023-09-27T11:07:48.242Z,9.47
2023-09-27T11:10:20.073Z,9.20
2023-09-27T11:12:48.684Z,10.00
2023-09-27T11:15:23.902Z,9.73
2023-09-27T11:17:57.665Z,9.00
2023-09-27T11:20:25.938Z,8.80
2023-09-27T11:22:58.278Z,9.40
2023-09-27T11:25:34.030Z,8.90
2023-09-27T11:28:01.391Z,9.40
2023-09-27T11:30:31.313Z,10.90
2023-09-27T11:35:28.173Z,9.87
2023-09-27T11:38:07.570Z,10.03
2023-09-27T11:40:39.137Z,9.37
2023-09-27T11:43:08.953Z,8.80
2023-09-27T11:45:45.478Z,8.93
2023-09-27T11:48:13.734Z,9.53
2023-09-27T11:50:41.147Z,9.20
2023-09-27T11:53:08.428Z,8.50
2023-09-27T11:55:36.321Z,8.23
2023-09-27T11:58:03.726Z,13.83
2023-09-27T12:00:31.221Z,8.83
2023-09-27T12:02:59.300Z,8.87
2023-09-27T12:05:27.875Z,8.30
2023-09-27T12:07:56.217Z,9.47
2023-09-27T12:10:23.573Z,9.60
2023-09-27T12:12:50.864Z,9.87
2023-09-27T12:15:19.725Z,8.80
2023-09-27T12:17:46.991Z,9.03
2023-09-27T12:20:31.571Z,9.90
2023-09-27T12:22:59.596Z,8.10
2023-09-27T12:25:28.107Z,8.63
2023-09-27T12:27:55.982Z,8.40
2023-09-27T12:30:23.239Z,9.70
2023-09-27T12:32:52.274Z,8.33
2023-09-27T12:35:21.345Z,8.97
2023-09-27T12:37:48.947Z,8.70
2023-09-27T12:40:16.329Z,7.57
2023-09-27T12:42:43.737Z,9.67
2023-09-27T12:45:11.336Z,8.10
2023-09-27T12:47:40.040Z,7.50
2023-09-27T12:50:08.787Z,8.67
2023-09-27T12:52:36.065Z,8.10
2023-09-27T12:55:03.444Z,7.77
2023-09-27T12:57:30.925Z,7.37
2023-09-27T12:59:58.585Z,7.40
2023-09-27T13:02:26.587Z,6.70
2023-09-27T13:04:54.170Z,6.23
2023-09-27T13:07:21.341Z,7.43
2023-09-27T13:09:50.314Z,7.10
2023-09-27T13:12:18.793Z,6.70
2023-09-27T13:14:46.356Z,6.80
2023-09-27T13:17:13.763Z,7.47
2023-09-27T13:19:41.140Z,6.97
2023-09-27T13:22:08.312Z,6.80
2023-09-27T13:24:36.910Z,6.87
2023-09-27T13:27:04.106Z,6.97
2023-09-27T13:29:31.655Z,10.17
2023-09-27T13:31:59.376Z,6.93
2023-09-27T13:34:26.559Z,7.30
2023-09-27T13:36:53.795Z,6.60
2023-09-27T13:39:26.883Z,7.87
2023-09-27T13:41:54.424Z,6.80
2023-09-27T13:44:21.889Z,6.10
2023-09-27T13:46:50.163Z,7.67
2023-09-27T13:49:19.483Z,6.50
2023-09-27T13:51:46.778Z,6.93
2023-09-27T13:54:15.421Z,6.50
2023-09-27T13:56:43.050Z,6.40
2023-09-27T13:59:10.380Z,6.90
2023-09-27T14:01:38.060Z,7.03
2023-09-27T14:04:05.513Z,6.60
2023-09-27T14:06:32.804Z,7.03
2023-09-27T14:09:00.172Z,6.20
2023-09-27T14:11:27.500Z,5.90
2023-09-27T14:13:56.710Z,6.60
2023-09-27T14:16:24.183Z,8.50
2023-09-27T14:18:51.881Z,6.00
2023-09-27T14:21:19.380Z,6.33
2023-09-27T14:23:47.652Z,6.03
2023-09-27T14:26:16.285Z,5.87
2023-09-27T14:28:44.287Z,6.13
2023-09-27T14:31:12.016Z,5.40
2023-09-27T14:33:39.930Z,5.87
2023-09-27T14:36:07.215Z,5.90
2023-09-27T14:38:35.327Z,5.60
2023-09-27T14:41:08.099Z,5.47
2023-09-27T14:43:39.201Z,5.60
2023-09-27T14:46:11.151Z,5.30
2023-09-27T14:48:39.409Z,5.63
2023-09-27T14:51:08.675Z,5.40
2023-09-27T14:53:35.933Z,5.63
2023-09-27T14:56:09.992Z,5.30
2023-09-27T14:58:37.474Z,6.53
2023-09-27T15:01:05.304Z,6.70
2023-09-27T15:03:34.335Z,6.30
2023-09-27T15:06:02.521Z,6.10
2023-09-27T15:08:30.691Z,6.17
2023-09-27T15:10:58.127Z,5.70
2023-09-27T15:13:25.671Z,6.50
2023-09-27T15:15:52.987Z,5.30
2023-09-27T15:18:22.643Z,6.07
2023-09-27T15:20:51.497Z,6.07
2023-09-27T15:23:18.678Z,5.97
2023-09-27T15:25:46.056Z,6.73
2023-09-27T15:28:13.341Z,8.90
2023-09-27T15:30:41.945Z,7.23
2023-09-27T15:33:10.671Z,7.13
2023-09-27T15:35:41.080Z,5.30
2023-09-27T15:38:08.504Z,5.60
2023-09-27T15:40:35.727Z,7.13
2023-09-27T15:43:03.532Z,5.87
2023-09-27T15:45:31.201Z,8.23
2023-09-27T15:47:58.871Z,7.33
2023-09-27T15:50:27.060Z,8.00
2023-09-27T15:52:54.322Z,7.33
2023-09-27T15:55:21.750Z,8.13
2023-09-27T15:57:48.974Z,6.50
2023-09-27T16:00:17.150Z,6.27
2023-09-27T16:02:45.067Z,5.90
2023-09-27T16:05:13.554Z,6.90
2023-09-27T16:07:41.084Z,5.93
2023-09-27T16:10:15.686Z,6.03
2023-09-27T16:12:43.607Z,6.33
2023-09-27T16:15:11.576Z,6.50
2023-09-27T16:17:40.369Z,5.80
2023-09-27T16:20:11.953Z,6.57
2023-09-27T16:22:39.871Z,7.80
2023-09-27T16:25:08.395Z,7.27
2023-09-27T16:27:36.189Z,8.20
2023-09-27T16:30:04.279Z,8.50
2023-09-27T16:32:32.844Z,8.73
2023-09-27T16:35:00.553Z,7.57
2023-09-27T16:37:27.866Z,8.70
2023-09-27T16:39:56.744Z,8.00
2023-09-27T16:42:23.953Z,7.43
2023-09-27T16:44:51.114Z,11.10
2023-09-27T16:47:18.313Z,11.27
2023-09-27T16:49:45.563Z,8.80
2023-09-27T16:52:15.316Z,12.17
2023-09-27T16:54:43.969Z,10.33
2023-09-27T16:57:11.475Z,10.00
2023-09-27T16:59:39.772Z,10.87
2023-09-27T17:02:07.485Z,13.87
2023-09-27T17:04:34.865Z,12.70
2023-09-27T17:07:02.214Z,11.20
2023-09-27T17:09:29.589Z,9.60
2023-09-27T17:11:57.899Z,12.20
2023-09-27T17:14:25.108Z,12.57
2023-09-27T17:16:52.365Z,11.10
2023-09-27T17:19:24.782Z,12.80
2023-09-27T17:21:54.138Z,9.90
2023-09-27T17:24:22.069Z,12.50
2023-09-27T17:26:49.662Z,14.57
2023-09-27T17:29:17.449Z,11.30
2023-09-27T17:31:44.859Z,9.73
2023-09-27T17:34:13.461Z,9.90
2023-09-27T17:36:40.730Z,10.67
2023-09-27T17:39:08.165Z,10.27
2023-09-27T17:41:36.516Z,11.80
2023-09-27T17:44:03.814Z,14.50
2023-09-27T17:46:31.103Z,11.53
2023-09-27T17:48:58.945Z,13.57
2023-09-27T17:51:26.220Z,13.70
2023-09-27T17:53:53.796Z,10.70
2023-09-27T17:56:21.783Z,9.80
2023-09-27T17:58:49.527Z,11.70
2023-09-27T18:01:18.141Z,13.10
2023-09-27T18:03:46.482Z,12.83
2023-09-27T18:06:14.638Z,12.43
2023-09-27T18:08:42.316Z,12.50
2023-09-27T18:11:13.852Z,10.73
2023-09-27T18:13:41.787Z,13.67
2023-09-27T18:16:21.664Z,12.53
2023-09-27T18:18:49.844Z,11.93
2023-09-27T18:21:18.131Z,12.30
2023-09-27T18:23:45.715Z,17.30
2023-09-27T18:26:13.626Z,18.80
2023-09-27T18:28:41.027Z,17.13
2023-09-27T18:31:08.802Z,14.30
2023-09-27T18:33:36.115Z,13.47
2023-09-27T18:36:03.944Z,13.03
2023-09-27T18:38:31.366Z,12.20
2023-09-27T18:40:59.279Z,12.80
2023-09-27T18:43:26.712Z,12.87
2023-09-27T18:45:55.342Z,12.60
2023-09-27T18:48:23.063Z,14.03
2023-09-27T18:50:53.091Z,13.67
2023-09-27T18:53:21.047Z,13.00
2023-09-27T18:55:48.419Z,18.03
2023-09-27T18:58:15.927Z,16.10
2023-09-27T19:00:43.714Z,14.43
2023-09-27T19:03:14.202Z,13.90
2023-09-27T19:05:41.715Z,18.10
2023-09-27T19:08:09.016Z,13.83
2023-09-27T19:10:39.976Z,13.70
2023-09-27T19:13:07.340Z,13.40
2023-09-27T19:15:34.631Z,14.00
2023-09-27T19:18:02.140Z,14.90
2023-09-27T19:20:30.662Z,16.37
2023-09-27T19:22:58.650Z,16.53
2023-09-27T19:25:25.977Z,17.27
2023-09-27T19:27:54.652Z,15.70
2023-09-27T19:30:23.320Z,15.60
2023-09-27T19:32:51.734Z,15.80
2023-09-27T19:35:20.761Z,16.27
2023-09-27T19:37:48.524Z,18.40
2023-09-27T19:40:16.175Z,20.17
2023-09-27T19:42:43.879Z,15.47
2023-09-27T19:45:11.330Z,15.47
2023-09-27T19:47:38.883Z,19.97
2023-09-27T19:50:07.810Z,17.90
2023-09-27T19:52:38.339Z,17.67
2023-09-27T19:55:09.895Z,16.20
2023-09-27T19:57:37.154Z,15.10
2023-09-27T20:00:06.309Z,20.80
2023-09-27T20:02:36.840Z,17.57
2023-09-27T20:05:04.428Z,15.83
2023-09-27T20:07:35.285Z,18.40
2023-09-27T20:10:02.780Z,16.70
2023-09-27T20:12:30.031Z,17.20
2023-09-27T20:14:57.303Z,15.90
2023-09-27T20:17:24.832Z,17.60
2023-09-27T20:19:52.043Z,17.87
2023-09-27T20:22:20.384Z,17.60
2023-09-27T20:24:47.760Z,17.10
2023-09-27T20:27:16.128Z,17.80
2023-09-27T20:29:43.375Z,22.40
2023-09-27T20:32:10.631Z,20.70
2023-09-27T20:34:38.132Z,19.97
2023-09-27T20:37:05.397Z,17.97
2023-09-27T20:39:33.074Z,19.00
2023-09-27T20:42:01.319Z,17.53
2023-09-27T20:44:28.722Z,15.90
2023-09-27T20:46:56.159Z,17.00
2023-09-27T20:49:24.048Z,17.00
2023-09-27T20:51:52.351Z,17.80
2023-09-27T20:54:20.126Z,17.70
2023-09-27T20:56:48.756Z,17.40
2023-09-27T20:59:16.474Z,17.33
2023-09-27T21:01:44.942Z,16.73
2023-09-27T21:04:15.688Z,15.43
2023-09-27T21:06:43.136Z,17.07
2023-09-27T21:09:11.486Z,16.67
2023-09-27T21:11:39.988Z,18.40
2023-09-27T21:14:07.657Z,15.10
2023-09-27T21:16:35.215Z,15.70
2023-09-27T21:19:02.646Z,16.80
2023-09-27T21:21:32.889Z,16.17
2023-09-27T21:24:00.143Z,16.97
2023-09-27T21:26:27.872Z,15.37
2023-09-27T21:28:55.261Z,15.97
2023-09-27T21:31:22.725Z,17.27
2023-09-27T21:33:50.074Z,16.43
2023-09-27T21:36:18.505Z,16.30
2023-09-27T21:38:45.864Z,15.63
2023-09-27T21:41:14.943Z,16.47
2023-09-27T21:43:42.330Z,15.87
2023-09-27T21:46:19.282Z,15.40
2023-09-27T21:48:48.862Z,16.47
2023-09-27T21:51:16.636Z,15.80
2023-09-27T21:53:43.954Z,15.80
2023-09-27T21:56:11.608Z,17.60
2023-09-27T21:58:38.966Z,16.10
2023-09-27T22:01:15.993Z,17.40
2023-09-27T22:03:43.507Z,16.87
2023-09-27T22:06:11.841Z,15.80
2023-09-27T22:08:39.198Z,16.70
2023-09-27T22:11:08.767Z,16.60
2023-09-27T22:13:39.156Z,16.30
2023-09-27T22:16:11.125Z,14.90
2023-09-27T22:18:51.221Z,16.03
2023-09-27T22:21:45.880Z,15.40
2023-09-27T22:24:16.792Z,15.30
2023-09-27T22:26:53.320Z,14.70
2023-09-27T22:29:20.824Z,16.53
2023-09-27T22:31:48.551Z,17.03
2023-09-27T22:34:25.368Z,15.97
2023-09-27T22:36:53.036Z,16.53
2023-09-27T22:39:20.809Z,14.43
2023-09-27T22:41:49.607Z,15.80
2023-09-27T22:44:20.869Z,14.40
2023-09-27T22:46:51.042Z,15.10
2023-09-27T22:49:20.827Z,16.20
2023-09-27T22:51:49.154Z,15.40
2023-09-27T22:54:17.492Z,16.10
2023-09-27T22:56:45.363Z,15.70
2023-09-27T22:59:13.265Z,14.50
2023-09-27T23:01:41.264Z,14.37
2023-09-27T23:04:16.362Z,13.17
2023-09-27T23:06:48.972Z,14.73
2023-09-27T23:09:25.692Z,15.90
2023-09-27T23:12:13.526Z,12.70
2023-09-27T23:15:00.829Z,13.40
2023-09-27T23:17:33.755Z,14.13
2023-09-27T23:20:02.252Z,13.90
2023-09-27T23:22:49.836Z,13.33
2023-09-27T23:25:35.873Z,13.00
2023-09-27T23:28:04.419Z,12.53
2023-09-27T23:30:33.762Z,13.00
2023-09-27T23:33:03.190Z,13.17
2023-09-27T23:35:33.979Z,11.57
2023-09-27T23:38:30.539Z,12.20
2023-09-27T23:40:59.624Z,12.80
2023-09-27T23:43:38.680Z,12.40
2023-09-27T23:46:07.856Z,13.13
2023-09-27T23:48:36.197Z,13.50
2023-09-27T23:51:04.488Z,13.87
2023-09-27T23:53:31.895Z,13.17
2023-09-27T23:56:01.158Z,14.03
2023-09-27T23:58:33.466Z,14.30
